Time;durP1;ratioP1;P1;durP2;ratioP2;P2;SDS_P1;SDS_P2;PMS_P1;PMS_P2;Temp;Humidity;BMP_temperature;BMP_pressure;BME280_temperature;BME280_humidity;BME280_pressure;Samples;Min_cycle;Max_cycle;Signal;HPM_P1;HPM_P2
2023/09/10 00:00:05;;;;;;;8.57;7.00;;;;;;;;;;4968246;28;20643;-76
2023/09/10 00:02:31;;;;;;;7.47;6.83;;;;;;;;;;4945091;28;20179;-75
2023/09/10 00:04:56;;;;;;;11.18;7.10;;;;;;;;;;4960837;28;20260;-75
2023/09/10 00:07:21;;;;;;;7.97;7.17;;;;;;;;;;4959492;28;20245;-75
2023/09/10 00:09:46;;;;;;;7.33;6.63;;;;;;;;;;4972599;28;20223;-75
2023/09/10 00:12:12;;;;;;;7.35;6.65;;;;;;;;;;4953103;28;20188;-75
2023/09/10 00:14:37;;;;;;;7.37;6.57;;;;;;;;;;4954163;28;20217;-75
2023/09/10 00:17:02;;;;;;;8.43;7.10;;;;;;;;;;4972819;28;20171;-75
2023/09/10 00:19:27;;;;;;;6.93;6.30;;;;;;;;;;4976414;28;20201;-75
2023/09/10 00:21:52;;;;;;;7.60;6.53;;;;;;;;;;4975647;28;20180;-75
2023/09/10 00:24:18;;;;;;;7.17;6.50;;;;;;;;;;4955850;28;20190;-76
2023/09/10 00:26:43;;;;;;;7.77;6.57;;;;;;;;;;4953651;28;20283;-75
2023/09/10 00:29:08;;;;;;;7.87;7.13;;;;;;;;;;4972683;28;20265;-75
2023/09/10 00:31:33;;;;;;;7.30;6.53;;;;;;;;;;4972015;28;20203;-75
2023/09/10 00:33:59;;;;;;;8.23;7.40;;;;;;;;;;4952669;28;20314;-75
2023/09/10 00:36:24;;;;;;;8.80;7.63;;;;;;;;;;4953214;28;20192;-75
2023/09/10 00:38:49;;;;;;;8.73;7.00;;;;;;;;;;4971310;28;20198;-75
2023/09/10 00:41:14;;;;;;;7.57;6.73;;;;;;;;;;4955098;28;20207;-76
2023/09/10 00:43:40;;;;;;;7.00;6.40;;;;;;;;;;4955832;28;20181;-75
2023/09/10 00:46:05;;;;;;;9.10;6.50;;;;;;;;;;4953020;28;20704;-75
2023/09/10 00:48:33;;;;;;;8.50;7.20;;;;;;;;;;4957596;28;20199;-75
2023/09/10 00:50:59;;;;;;;7.70;7.00;;;;;;;;;;4951029;28;20190;-75
2023/09/10 00:53:24;;;;;;;7.37;6.77;;;;;;;;;;4954167;28;20246;-75
2023/09/10 00:55:49;;;;;;;8.00;7.20;;;;;;;;;;4978934;28;20254;-75
2023/09/10 00:58:14;;;;;;;7.87;7.00;;;;;;;;;;4953574;28;20184;-75
2023/09/10 01:00:44;;;;;;;10.20;7.47;;;;;;;;;;4952741;28;20183;-75
2023/09/10 01:03:10;;;;;;;7.60;6.87;;;;;;;;;;4971236;28;20176;-75
2023/09/10 01:05:35;;;;;;;7.90;7.10;;;;;;;;;;4972888;28;20178;-75
2023/09/10 01:08:02;;;;;;;7.70;7.00;;;;;;;;;;4953709;28;20183;-75
2023/09/10 01:10:32;;;;;;;7.33;6.37;;;;;;;;;;4955524;28;20171;-75
2023/09/10 01:12:58;;;;;;;7.20;6.50;;;;;;;;;;4955448;28;20194;-75
2023/09/10 01:15:28;;;;;;;7.00;6.30;;;;;;;;;;4953720;28;20181;-76
2023/09/10 01:18:08;;;;;;;9.20;6.60;;;;;;;;;;4959522;28;20181;-75
2023/09/10 01:20:46;;;;;;;7.70;7.00;;;;;;;;;;4968373;28;20209;-74
2023/09/10 01:23:14;;;;;;;7.50;6.63;;;;;;;;;;4971546;28;20165;-75
2023/09/10 01:25:40;;;;;;;7.03;6.43;;;;;;;;;;4960446;28;20183;-74
2023/09/10 01:28:06;;;;;;;5.87;5.37;;;;;;;;;;4976722;28;20214;-75
2023/09/10 01:30:31;;;;;;;6.50;5.87;;;;;;;;;;4953392;28;20199;-74
2023/09/10 01:33:01;;;;;;;6.70;6.00;;;;;;;;;;4964391;28;20194;-75
2023/09/10 01:35:42;;;;;;;7.53;6.27;;;;;;;;;;4955111;28;20292;-75
2023/09/10 01:38:16;;;;;;;7.00;6.17;;;;;;;;;;4958710;28;21053;-75
2023/09/10 01:40:44;;;;;;;6.53;5.83;;;;;;;;;;4960808;28;20175;-75
2023/09/10 01:43:10;;;;;;;6.13;5.53;;;;;;;;;;4940735;28;20253;-75
2023/09/10 01:45:35;;;;;;;6.57;5.97;;;;;;;;;;4954941;28;20284;-75
2023/09/10 01:48:01;;;;;;;6.60;6.00;;;;;;;;;;4949282;28;20183;-75
2023/09/10 01:50:28;;;;;;;6.23;5.63;;;;;;;;;;4948663;28;20279;-74
2023/09/10 01:52:53;;;;;;;5.83;5.23;;;;;;;;;;4947643;28;20273;-75
2023/09/10 01:55:18;;;;;;;5.63;5.17;;;;;;;;;;4950691;28;20285;-75
2023/09/10 01:57:43;;;;;;;6.47;5.60;;;;;;;;;;4950721;28;20192;-75
2023/09/10 02:00:09;;;;;;;8.23;5.37;;;;;;;;;;4951002;28;20260;-75
2023/09/10 02:02:34;;;;;;;5.43;4.97;;;;;;;;;;4949760;28;20176;-75
2023/09/10 02:04:59;;;;;;;7.17;5.80;;;;;;;;;;4950540;28;20179;-75
2023/09/10 02:07:25;;;;;;;7.33;5.23;;;;;;;;;;4953143;28;20214;-75
2023/09/10 02:09:50;;;;;;;6.10;5.50;;;;;;;;;;4951605;28;20280;-75
2023/09/10 02:12:15;;;;;;;6.47;5.70;;;;;;;;;;4951935;28;20185;-75
2023/09/10 02:14:40;;;;;;;6.33;4.90;;;;;;;;;;4951360;28;20225;-75
2023/09/10 02:17:08;;;;;;;7.50;5.50;;;;;;;;;;4947387;28;20262;-75
2023/09/10 02:19:33;;;;;;;5.90;5.30;;;;;;;;;;4951705;28;20196;-75
2023/09/10 02:22:01;;;;;;;5.20;4.70;;;;;;;;;;4950135;28;20259;-75
2023/09/10 02:24:26;;;;;;;5.93;5.33;;;;;;;;;;4950118;28;20193;-75
2023/09/10 02:26:52;;;;;;;6.60;5.27;;;;;;;;;;4945381;28;20185;-75
2023/09/10 02:29:17;;;;;;;5.23;4.73;;;;;;;;;;4951248;28;20262;-75
2023/09/10 02:31:42;;;;;;;5.37;4.97;;;;;;;;;;4942955;28;20177;-75
2023/09/10 02:34:07;;;;;;;4.90;4.30;;;;;;;;;;4945180;28;20275;-75
2023/09/10 02:36:32;;;;;;;5.93;5.00;;;;;;;;;;4950045;28;20183;-75
2023/09/10 02:38:58;;;;;;;5.90;5.40;;;;;;;;;;4949528;28;20225;-76
2023/09/10 02:41:23;;;;;;;5.57;5.03;;;;;;;;;;4951526;28;20176;-75
2023/09/10 02:43:48;;;;;;;6.43;5.23;;;;;;;;;;4944924;28;20380;-75
2023/09/10 02:46:13;;;;;;;7.40;5.67;;;;;;;;;;4951335;28;20174;-75
2023/09/10 02:48:39;;;;;;;5.80;5.20;;;;;;;;;;4949966;28;20417;-75
2023/09/10 02:51:04;;;;;;;6.13;5.63;;;;;;;;;;4949698;28;20178;-76
2023/09/10 02:53:29;;;;;;;5.70;5.20;;;;;;;;;;4950090;28;20201;-75
2023/09/10 02:55:58;;;;;;;6.20;5.60;;;;;;;;;;4950354;28;20201;-75
2023/09/10 02:58:23;;;;;;;5.77;5.27;;;;;;;;;;4949494;28;20180;-75
2023/09/10 03:00:48;;;;;;;6.30;5.70;;;;;;;;;;4948303;28;20182;-75
2023/09/10 03:03:13;;;;;;;6.17;5.57;;;;;;;;;;4950553;28;20197;-75
2023/09/10 03:05:39;;;;;;;5.77;5.27;;;;;;;;;;4947289;28;20175;-76
2023/09/10 03:08:04;;;;;;;5.77;5.13;;;;;;;;;;4950090;28;20177;-75
2023/09/10 03:10:29;;;;;;;6.27;5.67;;;;;;;;;;4951481;28;20187;-75
2023/09/10 03:12:54;;;;;;;6.17;5.57;;;;;;;;;;4947920;28;20173;-75
2023/09/10 03:15:20;;;;;;;11.67;6.43;;;;;;;;;;4948440;28;20184;-75
2023/09/10 03:17:45;;;;;;;10.80;6.97;;;;;;;;;;4948778;28;20196;-75
2023/09/10 03:20:11;;;;;;;6.43;5.80;;;;;;;;;;4949082;28;20207;-75
2023/09/10 03:22:36;;;;;;;6.50;5.90;;;;;;;;;;4947914;28;20197;-76
2023/09/10 03:25:02;;;;;;;6.97;5.97;;;;;;;;;;4947128;28;20183;-75
2023/09/10 03:27:27;;;;;;;7.43;6.63;;;;;;;;;;4946372;28;20280;-75
2023/09/10 03:29:52;;;;;;;6.97;6.37;;;;;;;;;;4954621;28;20178;-76
2023/09/10 03:32:17;;;;;;;7.33;6.50;;;;;;;;;;4948532;28;20185;-75
2023/09/10 03:34:42;;;;;;;6.80;6.07;;;;;;;;;;4961381;28;20296;-75
2023/09/10 03:37:08;;;;;;;7.23;6.53;;;;;;;;;;4954280;28;20218;-75
2023/09/10 03:39:34;;;;;;;8.23;6.80;;;;;;;;;;4954496;28;20204;-75
2023/09/10 03:41:59;;;;;;;7.97;7.27;;;;;;;;;;4970305;28;20184;-75
2023/09/10 03:44:24;;;;;;;7.57;6.20;;;;;;;;;;4972170;28;20180;-75
2023/09/10 03:46:50;;;;;;;8.50;6.53;;;;;;;;;;4954908;28;20206;-75
2023/09/10 03:49:15;;;;;;;7.60;6.40;;;;;;;;;;4950403;28;20269;-76
2023/09/10 03:51:40;;;;;;;8.30;6.23;;;;;;;;;;4957938;28;20268;-75
2023/09/10 03:54:07;;;;;;;6.97;6.27;;;;;;;;;;4959793;28;20231;-75
2023/09/10 03:56:32;;;;;;;8.37;6.90;;;;;;;;;;4974237;28;20175;-75
2023/09/10 03:58:58;;;;;;;7.27;6.57;;;;;;;;;;4968599;28;20266;-75
2023/09/10 04:01:23;;;;;;;7.03;6.33;;;;;;;;;;4953379;28;20203;-75
2023/09/10 04:03:48;;;;;;;6.93;6.33;;;;;;;;;;4958741;28;20193;-75
2023/09/10 04:06:13;;;;;;;7.47;6.83;;;;;;;;;;4956176;28;20185;-75
2023/09/10 04:08:39;;;;;;;6.63;6.03;;;;;;;;;;4958125;28;20179;-75
2023/09/10 04:11:06;;;;;;;6.10;5.50;;;;;;;;;;4957303;28;20179;-75
2023/09/10 04:13:31;;;;;;;6.37;5.77;;;;;;;;;;4954417;28;20179;-75
2023/09/10 04:15:56;;;;;;;6.53;5.90;;;;;;;;;;4949789;28;20193;-75
2023/09/10 04:18:22;;;;;;;6.87;6.17;;;;;;;;;;4979184;28;20176;-75
2023/09/10 04:20:47;;;;;;;7.07;6.37;;;;;;;;;;4975731;28;20181;-76
2023/09/10 04:23:12;;;;;;;6.90;6.20;;;;;;;;;;4950594;28;20195;-75
2023/09/10 04:25:38;;;;;;;7.20;6.50;;;;;;;;;;4955936;28;20263;-75
2023/09/10 04:28:03;;;;;;;6.23;5.63;;;;;;;;;;4956540;28;20178;-75
2023/09/10 04:30:30;;;;;;;7.87;6.13;;;;;;;;;;4969596;28;20191;-75
2023/09/10 04:32:55;;;;;;;6.90;6.30;;;;;;;;;;4956283;28;20184;-75
2023/09/10 04:35:20;;;;;;;6.50;5.90;;;;;;;;;;4941907;28;20263;-76
2023/09/10 04:37:45;;;;;;;6.40;5.80;;;;;;;;;;4954768;28;20179;-76
2023/09/10 04:40:11;;;;;;;6.13;5.63;;;;;;;;;;4954204;28;20259;-75
2023/09/10 04:42:36;;;;;;;6.80;6.20;;;;;;;;;;4953721;28;20259;-75
2023/09/10 04:45:03;;;;;;;7.20;6.47;;;;;;;;;;4954336;28;20177;-75
2023/09/10 04:47:28;;;;;;;6.37;5.77;;;;;;;;;;4958790;28;20184;-76
2023/09/10 04:49:53;;;;;;;6.23;5.63;;;;;;;;;;4954392;28;20181;-75
2023/09/10 04:52:19;;;;;;;6.17;5.57;;;;;;;;;;4969211;28;20191;-75
2023/09/10 04:54:44;;;;;;;5.80;5.30;;;;;;;;;;4972416;28;20179;-76
2023/09/10 04:57:10;;;;;;;6.10;5.50;;;;;;;;;;4955740;28;20206;-75
2023/09/10 04:59:35;;;;;;;6.90;6.30;;;;;;;;;;4952713;28;20203;-75
2023/09/10 05:02:00;;;;;;;6.50;5.90;;;;;;;;;;4973210;28;20233;-76
2023/09/10 05:04:26;;;;;;;6.27;5.67;;;;;;;;;;4975548;28;20183;-75
2023/09/10 05:06:51;;;;;;;7.13;5.93;;;;;;;;;;4954873;28;20188;-75
2023/09/10 05:09:16;;;;;;;6.13;5.53;;;;;;;;;;4956227;28;20260;-76
2023/09/10 05:11:41;;;;;;;9.10;6.03;;;;;;;;;;4970983;28;20198;-75
2023/09/10 05:14:07;;;;;;;6.37;5.77;;;;;;;;;;4949580;28;20193;-76
2023/09/10 05:16:32;;;;;;;6.63;5.60;;;;;;;;;;4963227;28;20192;-75
2023/09/10 05:18:57;;;;;;;6.63;5.97;;;;;;;;;;4954940;28;20199;-76
2023/09/10 05:21:22;;;;;;;6.37;5.77;;;;;;;;;;4954585;28;20166;-75
2023/09/10 05:23:48;;;;;;;5.93;5.53;;;;;;;;;;4954666;28;20177;-75
2023/09/10 05:26:13;;;;;;;7.03;6.33;;;;;;;;;;4953289;28;20179;-75
2023/09/10 05:28:38;;;;;;;6.67;6.07;;;;;;;;;;4972995;28;20172;-75
2023/09/10 05:31:04;;;;;;;6.07;5.53;;;;;;;;;;4955934;28;20182;-75
2023/09/10 05:33:29;;;;;;;7.17;5.83;;;;;;;;;;4972444;28;20202;-76
2023/09/10 05:35:56;;;;;;;6.37;5.77;;;;;;;;;;4970067;28;20181;-76
2023/09/10 05:38:21;;;;;;;6.77;6.17;;;;;;;;;;4953716;28;20180;-76
2023/09/10 05:40:46;;;;;;;7.10;6.27;;;;;;;;;;4957378;28;20214;-75
2023/09/10 05:43:11;;;;;;;7.80;6.73;;;;;;;;;;4972440;28;20165;-76
2023/09/10 05:45:37;;;;;;;7.47;6.67;;;;;;;;;;4954221;28;20186;-75
2023/09/10 05:48:02;;;;;;;8.33;7.30;;;;;;;;;;4970025;28;20178;-76
2023/09/10 05:50:28;;;;;;;7.67;6.87;;;;;;;;;;4955630;28;20176;-75
2023/09/10 05:52:56;;;;;;;7.53;6.57;;;;;;;;;;4953661;28;20187;-75
2023/09/10 05:55:21;;;;;;;14.03;7.77;;;;;;;;;;4954020;28;20256;-76
2023/09/10 05:57:46;;;;;;;7.80;7.10;;;;;;;;;;4944898;28;20321;-75
2023/09/10 06:00:13;;;;;;;8.53;7.73;;;;;;;;;;4953314;28;20208;-75
2023/09/10 06:02:38;;;;;;;8.40;7.60;;;;;;;;;;4945780;28;20186;-76
2023/09/10 06:05:05;;;;;;;8.17;7.23;;;;;;;;;;4967698;28;20178;-76
2023/09/10 06:07:30;;;;;;;7.60;6.90;;;;;;;;;;4958552;28;20183;-75
2023/09/10 06:09:55;;;;;;;8.27;7.43;;;;;;;;;;4953134;28;20200;-75
2023/09/10 06:12:20;;;;;;;8.07;7.30;;;;;;;;;;4954839;28;20217;-76
2023/09/10 06:14:46;;;;;;;8.80;7.60;;;;;;;;;;4946355;28;20185;-75
2023/09/10 06:17:11;;;;;;;8.20;7.43;;;;;;;;;;4958640;28;20183;-76
2023/09/10 06:19:36;;;;;;;8.57;7.77;;;;;;;;;;4953766;28;20208;-75
2023/09/10 06:22:01;;;;;;;7.70;6.93;;;;;;;;;;4958714;28;20187;-76
2023/09/10 06:24:26;;;;;;;8.33;7.53;;;;;;;;;;4947700;28;20180;-76
2023/09/10 06:26:52;;;;;;;8.63;7.90;;;;;;;;;;4970084;28;20174;-75
2023/09/10 06:29:17;;;;;;;7.63;6.93;;;;;;;;;;4948291;28;20186;-76
2023/09/10 06:31:42;;;;;;;8.03;7.23;;;;;;;;;;4952824;28;20185;-75
2023/09/10 06:34:07;;;;;;;9.20;8.10;;;;;;;;;;4950498;28;20234;-76
2023/09/10 06:36:32;;;;;;;8.10;7.40;;;;;;;;;;4959083;28;20178;-75
2023/09/10 06:38:58;;;;;;;7.83;7.00;;;;;;;;;;4966937;28;20222;-75
2023/09/10 06:41:23;;;;;;;8.17;7.47;;;;;;;;;;4953219;28;20175;-76
2023/09/10 06:43:48;;;;;;;7.53;6.77;;;;;;;;;;4952165;28;20261;-76
2023/09/10 06:46:13;;;;;;;8.10;7.30;;;;;;;;;;4951717;28;20195;-76
2023/09/10 06:48:39;;;;;;;8.23;7.53;;;;;;;;;;4951177;28;20185;-76
2023/09/10 06:51:04;;;;;;;7.73;6.93;;;;;;;;;;4950870;28;20170;-76
2023/09/10 06:53:30;;;;;;;7.47;6.77;;;;;;;;;;4953499;28;20176;-75
2023/09/10 06:55:56;;;;;;;9.10;8.07;;;;;;;;;;4951774;28;20226;-75
2023/09/10 06:58:21;;;;;;;7.70;7.00;;;;;;;;;;4955642;28;20183;-75
2023/09/10 07:00:46;;;;;;;7.70;6.80;;;;;;;;;;4954907;28;20265;-76
2023/09/10 07:03:13;;;;;;;8.13;7.43;;;;;;;;;;4948041;28;20184;-76
2023/09/10 07:05:38;;;;;;;8.43;7.53;;;;;;;;;;4950477;28;20180;-75
2023/09/10 07:08:04;;;;;;;7.10;6.23;;;;;;;;;;4968910;28;20489;-76
2023/09/10 07:10:29;;;;;;;7.80;6.50;;;;;;;;;;4970543;28;20206;-76
2023/09/10 07:12:54;;;;;;;8.53;6.33;;;;;;;;;;4950254;28;20215;-76
2023/09/10 07:15:19;;;;;;;7.73;7.07;;;;;;;;;;4970175;28;20184;-76
2023/09/10 07:17:45;;;;;;;7.30;6.70;;;;;;;;;;4955470;28;20271;-75
2023/09/10 07:20:11;;;;;;;7.40;6.80;;;;;;;;;;4941385;28;20303;-76
2023/09/10 07:22:36;;;;;;;8.33;7.10;;;;;;;;;;4948696;28;20177;-76
2023/09/10 07:25:01;;;;;;;8.67;6.63;;;;;;;;;;4948041;28;20244;-76
2023/09/10 07:27:26;;;;;;;9.57;7.87;;;;;;;;;;4955626;28;20188;-76
2023/09/10 07:29:52;;;;;;;7.87;7.17;;;;;;;;;;4967742;28;20184;-76
2023/09/10 07:32:17;;;;;;;6.70;6.03;;;;;;;;;;4960559;28;20192;-76
2023/09/10 07:34:42;;;;;;;7.63;6.83;;;;;;;;;;4952342;28;20246;-76
2023/09/10 07:37:07;;;;;;;7.23;6.63;;;;;;;;;;4951495;28;20184;-75
2023/09/10 07:39:32;;;;;;;7.63;6.93;;;;;;;;;;4950205;28;20266;-75
2023/09/10 07:41:58;;;;;;;6.77;6.17;;;;;;;;;;4961328;28;20329;-76
2023/09/10 07:44:23;;;;;;;7.03;6.43;;;;;;;;;;4971430;28;20168;-76
2023/09/10 07:46:48;;;;;;;7.83;7.13;;;;;;;;;;4946247;28;20184;-75
2023/09/10 07:49:13;;;;;;;7.70;6.77;;;;;;;;;;4965630;28;20184;-76
2023/09/10 07:51:39;;;;;;;6.83;6.27;;;;;;;;;;4968765;28;20331;-75
2023/09/10 07:54:04;;;;;;;7.50;6.70;;;;;;;;;;4952253;28;20185;-76
2023/09/10 07:56:29;;;;;;;8.00;7.18;;;;;;;;;;4955951;28;20173;-76
2023/09/10 07:58:54;;;;;;;7.73;6.13;;;;;;;;;;4942512;28;20299;-76
2023/09/10 08:01:20;;;;;;;8.57;6.73;;;;;;;;;;4967813;28;20233;-75
2023/09/10 08:03:45;;;;;;;7.00;6.50;;;;;;;;;;4970604;28;20236;-76
2023/09/10 08:06:10;;;;;;;9.05;8.25;;;;;;;;;;4946769;28;20208;-75
2023/09/10 08:08:35;;;;;;;7.53;6.88;;;;;;;;;;4948599;28;20186;-77
2023/09/10 08:11:01;;;;;;;8.05;7.10;;;;;;;;;;4945728;28;20189;-75
2023/09/10 08:13:26;;;;;;;8.30;6.90;;;;;;;;;;4947112;28;20180;-76
2023/09/10 08:15:51;;;;;;;7.75;6.70;;;;;;;;;;4969351;28;20235;-75
2023/09/10 08:18:17;;;;;;;7.90;7.20;;;;;;;;;;4954394;28;20179;-75
2023/09/10 08:20:42;;;;;;;6.72;6.13;;;;;;;;;;4952137;28;20305;-76
2023/09/10 08:23:08;;;;;;;7.65;6.60;;;;;;;;;;4955007;28;20185;-75
2023/09/10 08:25:33;;;;;;;6.68;6.18;;;;;;;;;;4955756;28;20172;-76
2023/09/10 08:28:01;;;;;;;7.55;6.85;;;;;;;;;;4957237;28;20180;-76
2023/09/10 08:30:27;;;;;;;7.55;6.72;;;;;;;;;;4971671;28;20169;-75
2023/09/10 08:32:52;;;;;;;6.93;6.32;;;;;;;;;;4953867;28;20181;-76
2023/09/10 08:35:18;;;;;;;7.25;6.63;;;;;;;;;;4953355;28;20324;-75
2023/09/10 08:37:43;;;;;;;7.72;6.95;;;;;;;;;;4955122;28;20208;-76
2023/09/10 08:40:08;;;;;;;6.95;6.25;;;;;;;;;;4952158;28;20197;-76
2023/09/10 08:42:55;;;;;;;8.82;7.75;;;;;;;;;;4943758;28;20181;-76
2023/09/10 08:45:21;;;;;;;9.13;7.13;;;;;;;;;;4952188;28;20177;-75
2023/09/10 08:47:47;;;;;;;7.07;6.38;;;;;;;;;;4954500;28;20216;-75
2023/09/10 08:50:13;;;;;;;7.97;7.18;;;;;;;;;;4950663;28;20185;-76
2023/09/10 08:52:40;;;;;;;7.05;6.45;;;;;;;;;;4953077;28;20200;-76
2023/09/10 08:55:06;;;;;;;7.65;6.68;;;;;;;;;;4951307;28;20192;-76
2023/09/10 08:57:31;;;;;;;7.78;6.97;;;;;;;;;;4954461;28;20177;-75
2023/09/10 08:59:57;;;;;;;10.05;6.88;;;;;;;;;;4942929;28;20214;-75
2023/09/10 09:02:22;;;;;;;7.07;6.47;;;;;;;;;;4958116;28;20175;-75
2023/09/10 09:04:48;;;;;;;7.68;6.97;;;;;;;;;;4948089;28;20182;-75
2023/09/10 09:07:15;;;;;;;8.50;7.57;;;;;;;;;;4947774;28;20184;-76
2023/09/10 09:09:41;;;;;;;6.97;6.47;;;;;;;;;;4953884;28;20174;-76
2023/09/10 09:12:09;;;;;;;9.68;6.80;;;;;;;;;;4949667;28;20192;-76
2023/09/10 09:14:37;;;;;;;8.77;7.30;;;;;;;;;;4949745;28;20250;-75
2023/09/10 09:17:03;;;;;;;7.85;7.05;;;;;;;;;;4951133;28;20188;-75
2023/09/10 09:19:30;;;;;;;7.45;6.75;;;;;;;;;;4953971;28;20204;-75
2023/09/10 09:21:56;;;;;;;7.45;6.75;;;;;;;;;;4943606;28;20182;-75
2023/09/10 09:24:22;;;;;;;8.23;7.40;;;;;;;;;;4951410;28;20182;-76
2023/09/10 09:26:51;;;;;;;7.78;7.03;;;;;;;;;;4954629;28;20174;-75
2023/09/10 09:29:16;;;;;;;7.95;7.25;;;;;;;;;;4954104;28;20185;-76
2023/09/10 09:31:41;;;;;;;7.45;6.82;;;;;;;;;;4951019;28;20189;-75
2023/09/10 09:34:07;;;;;;;7.55;6.85;;;;;;;;;;4951310;28;20232;-76
2023/09/10 09:36:36;;;;;;;7.22;6.53;;;;;;;;;;4949364;28;20176;-75
2023/09/10 09:39:07;;;;;;;6.93;6.32;;;;;;;;;;4952633;28;20220;-75
2023/09/10 09:41:33;;;;;;;7.63;6.97;;;;;;;;;;4949822;28;20174;-75
2023/09/10 09:43:58;;;;;;;7.32;6.72;;;;;;;;;;4944981;28;20197;-75
2023/09/10 09:46:30;;;;;;;7.72;6.80;;;;;;;;;;4946105;28;20280;-75
2023/09/10 09:48:55;;;;;;;7.05;6.45;;;;;;;;;;4945612;28;20181;-75
2023/09/10 09:51:21;;;;;;;8.07;7.00;;;;;;;;;;4948905;28;20182;-75
2023/09/10 09:53:46;;;;;;;7.72;7.03;;;;;;;;;;4961586;28;20187;-75
2023/09/10 09:56:15;;;;;;;7.97;7.18;;;;;;;;;;4950228;28;20188;-75
2023/09/10 09:58:40;;;;;;;7.35;6.75;;;;;;;;;;4952382;28;20205;-75
2023/09/10 10:01:06;;;;;;;8.45;6.57;;;;;;;;;;4949598;28;20185;-76
2023/09/10 10:03:32;;;;;;;8.88;7.00;;;;;;;;;;4951002;28;20745;-75
2023/09/10 10:05:58;;;;;;;7.30;6.60;;;;;;;;;;4949149;28;20228;-75
2023/09/10 10:08:24;;;;;;;6.93;6.32;;;;;;;;;;4942634;28;20178;-75
2023/09/10 10:10:49;;;;;;;7.10;6.30;;;;;;;;;;4947385;28;20178;-75
2023/09/10 10:13:19;;;;;;;7.03;6.43;;;;;;;;;;4947460;28;20228;-75
2023/09/10 10:15:48;;;;;;;7.22;6.57;;;;;;;;;;4950222;28;20173;-75
2023/09/10 10:18:18;;;;;;;7.13;6.47;;;;;;;;;;4966656;28;20185;-75
2023/09/10 10:20:47;;;;;;;7.88;6.95;;;;;;;;;;4947717;28;20204;-75
2023/09/10 10:23:13;;;;;;;7.55;6.85;;;;;;;;;;4953327;28;20178;-75
2023/09/10 10:25:39;;;;;;;7.30;6.60;;;;;;;;;;4949264;28;20269;-75
2023/09/10 10:28:07;;;;;;;7.07;6.28;;;;;;;;;;4950734;28;20193;-75
2023/09/10 10:30:33;;;;;;;7.05;6.35;;;;;;;;;;4948923;28;20166;-75
2023/09/10 10:33:00;;;;;;;7.38;6.65;;;;;;;;;;4947734;28;20193;-75
2023/09/10 10:35:28;;;;;;;7.07;6.47;;;;;;;;;;4949795;28;20237;-75
2023/09/10 10:37:57;;;;;;;7.05;6.40;;;;;;;;;;4947727;28;20182;-75
2023/09/10 10:40:35;;;;;;;7.25;6.63;;;;;;;;;;4946021;28;20296;-75
2023/09/10 10:43:03;;;;;;;6.70;6.07;;;;;;;;;;4945290;28;20173;-75
2023/09/10 10:45:30;;;;;;;6.85;6.25;;;;;;;;;;4940534;28;20253;-75
2023/09/10 10:47:57;;;;;;;8.02;6.40;;;;;;;;;;4938343;28;20240;-75
2023/09/10 10:50:27;;;;;;;7.30;6.60;;;;;;;;;;4948429;28;20181;-75
2023/09/10 10:52:56;;;;;;;8.15;6.45;;;;;;;;;;4948587;28;20182;-75
2023/09/10 10:55:21;;;;;;;7.45;6.40;;;;;;;;;;4951145;28;20173;-75
2023/09/10 10:57:47;;;;;;;7.03;6.38;;;;;;;;;;4951092;28;20237;-75
2023/09/10 11:00:12;;;;;;;6.70;6.10;;;;;;;;;;4944694;28;20209;-75
2023/09/10 11:02:38;;;;;;;7.30;6.70;;;;;;;;;;4947030;28;20209;-75
2023/09/10 11:05:04;;;;;;;8.23;7.43;;;;;;;;;;4957592;28;20969;-75
2023/09/10 11:07:30;;;;;;;15.32;6.97;;;;;;;;;;4951000;28;20181;-76
2023/09/10 11:09:57;;;;;;;8.15;7.07;;;;;;;;;;4951065;28;20200;-75
2023/09/10 11:12:23;;;;;;;8.10;6.75;;;;;;;;;;4949310;28;20228;-75
2023/09/10 11:15:00;;;;;;;6.80;6.20;;;;;;;;;;4942128;28;20201;-75
2023/09/10 11:17:29;;;;;;;8.10;7.03;;;;;;;;;;4953060;28;20186;-75
2023/09/10 11:19:55;;;;;;;7.35;6.30;;;;;;;;;;4947687;28;20212;-75
2023/09/10 11:22:21;;;;;;;7.32;6.55;;;;;;;;;;4950099;28;20182;-75
2023/09/10 11:24:58;;;;;;;8.98;7.25;;;;;;;;;;4948162;28;20201;-75
2023/09/10 11:27:26;;;;;;;6.90;6.28;;;;;;;;;;4947972;28;20177;-75
2023/09/10 11:30:04;;;;;;;7.85;6.80;;;;;;;;;;4947062;28;20185;-75
2023/09/10 11:32:29;;;;;;;9.45;6.20;;;;;;;;;;4947332;28;20216;-75
2023/09/10 11:35:14;;;;;;;8.05;7.35;;;;;;;;;;4957545;28;20271;-75
2023/09/10 11:37:41;;;;;;;7.32;6.72;;;;;;;;;;4969165;28;20184;-76
2023/09/10 11:40:07;;;;;;;7.15;6.45;;;;;;;;;;4965872;28;20299;-75
2023/09/10 11:42:33;;;;;;;7.28;6.38;;;;;;;;;;4951809;28;20179;-75
2023/09/10 11:44:58;;;;;;;7.15;6.30;;;;;;;;;;4949699;28;20181;-75
2023/09/10 11:47:26;;;;;;;7.35;6.57;;;;;;;;;;4946592;28;20189;-75
2023/09/10 11:49:59;;;;;;;7.53;6.82;;;;;;;;;;4964350;28;20216;-75
2023/09/10 11:52:24;;;;;;;7.40;6.55;;;;;;;;;;4947275;28;20268;-75
2023/09/10 11:54:49;;;;;;;7.25;6.65;;;;;;;;;;4945815;28;20295;-75
2023/09/10 11:57:14;;;;;;;9.15;6.90;;;;;;;;;;4951141;28;20177;-75
2023/09/10 11:59:40;;;;;;;7.07;6.47;;;;;;;;;;4968941;28;20188;-75
2023/09/10 12:02:06;;;;;;;7.60;6.90;;;;;;;;;;4970423;28;20239;-75
2023/09/10 12:04:32;;;;;;;10.20;6.78;;;;;;;;;;4952725;28;20283;-75
2023/09/10 12:06:58;;;;;;;6.90;6.40;;;;;;;;;;4956310;28;20173;-75
2023/09/10 12:09:24;;;;;;;7.72;6.82;;;;;;;;;;4952056;28;20287;-75
2023/09/10 12:11:51;;;;;;;7.78;7.00;;;;;;;;;;4951412;28;20177;-75
2023/09/10 12:14:17;;;;;;;7.45;6.75;;;;;;;;;;4966499;28;20180;-76
2023/09/10 12:16:42;;;;;;;7.75;6.95;;;;;;;;;;4972032;28;20181;-75
2023/09/10 12:19:07;;;;;;;8.15;7.05;;;;;;;;;;4969162;28;20208;-75
2023/09/10 12:21:33;;;;;;;7.20;6.50;;;;;;;;;;4956780;28;20172;-75
2023/09/10 12:23:58;;;;;;;8.40;6.90;;;;;;;;;;4971618;28;20177;-75
2023/09/10 12:26:23;;;;;;;7.00;6.18;;;;;;;;;;4957038;28;20184;-75
2023/09/10 12:28:50;;;;;;;7.18;6.53;;;;;;;;;;4954696;28;20177;-75
2023/09/10 12:31:15;;;;;;;7.40;6.70;;;;;;;;;;4951441;28;20177;-75
2023/09/10 12:33:40;;;;;;;8.63;6.90;;;;;;;;;;4975035;28;20904;-75
2023/09/10 12:36:05;;;;;;;7.00;6.30;;;;;;;;;;4968969;28;20185;-75
2023/09/10 12:38:31;;;;;;;7.28;6.57;;;;;;;;;;4961764;28;20460;-75
2023/09/10 12:40:56;;;;;;;7.05;6.38;;;;;;;;;;4956051;28;20227;-75
2023/09/10 12:43:21;;;;;;;7.50;6.75;;;;;;;;;;4959827;28;20181;-74
2023/09/10 12:45:47;;;;;;;6.65;5.88;;;;;;;;;;4960576;28;20168;-75
2023/09/10 12:48:13;;;;;;;7.40;6.70;;;;;;;;;;4971494;28;20173;-75
2023/09/10 12:50:38;;;;;;;6.97;6.30;;;;;;;;;;4961167;28;20235;-75
2023/09/10 12:53:03;;;;;;;6.20;5.70;;;;;;;;;;4953582;28;20181;-75
2023/09/10 12:55:29;;;;;;;6.50;5.80;;;;;;;;;;4965629;28;20273;-75
2023/09/10 12:57:55;;;;;;;7.85;6.35;;;;;;;;;;4976474;28;20173;-75
2023/09/10 13:00:21;;;;;;;6.90;6.30;;;;;;;;;;4952884;28;20432;-75
2023/09/10 13:02:46;;;;;;;8.98;6.53;;;;;;;;;;4962399;28;20177;-75
2023/09/10 13:05:11;;;;;;;8.50;6.63;;;;;;;;;;4970762;28;20231;-75
2023/09/10 13:07:37;;;;;;;7.60;7.00;;;;;;;;;;4957457;28;20196;-75
2023/09/10 13:10:03;;;;;;;12.30;6.75;;;;;;;;;;4947381;28;20181;-75
2023/09/10 13:12:28;;;;;;;6.68;6.07;;;;;;;;;;4957922;28;20235;-75
2023/09/10 13:14:53;;;;;;;7.18;6.47;;;;;;;;;;4953400;28;20185;-76
2023/09/10 13:17:19;;;;;;;7.05;6.35;;;;;;;;;;4957747;28;20306;-75
2023/09/10 13:19:44;;;;;;;7.15;6.45;;;;;;;;;;4955223;28;20256;-75
2023/09/10 13:22:09;;;;;;;7.65;6.88;;;;;;;;;;4955924;28;20177;-75
2023/09/10 13:24:34;;;;;;;7.38;6.55;;;;;;;;;;4970464;28;20177;-75
2023/09/10 13:27:00;;;;;;;7.10;6.53;;;;;;;;;;4965983;28;20309;-75
2023/09/10 13:29:25;;;;;;;11.90;7.10;;;;;;;;;;4965407;28;20195;-75
2023/09/10 13:31:51;;;;;;;7.43;6.72;;;;;;;;;;4953288;28;20199;-75
2023/09/10 13:34:16;;;;;;;7.53;6.65;;;;;;;;;;4950444;28;20240;-75
2023/09/10 13:36:42;;;;;;;6.68;6.05;;;;;;;;;;4953389;28;20275;-75
2023/09/10 13:39:07;;;;;;;6.50;6.00;;;;;;;;;;4954688;28;20407;-75
2023/09/10 13:41:32;;;;;;;7.63;6.85;;;;;;;;;;4956349;28;20184;-76
2023/09/10 13:43:57;;;;;;;8.18;7.00;;;;;;;;;;4971166;28;20169;-75
2023/09/10 13:46:23;;;;;;;7.55;6.75;;;;;;;;;;4970705;28;20177;-76
2023/09/10 13:48:48;;;;;;;8.38;7.57;;;;;;;;;;4969968;28;20176;-75
2023/09/10 13:51:14;;;;;;;8.82;7.60;;;;;;;;;;4953552;28;20190;-75
2023/09/10 13:53:41;;;;;;;7.28;6.60;;;;;;;;;;4953472;28;20267;-75
2023/09/10 13:56:07;;;;;;;9.38;6.57;;;;;;;;;;4968664;28;20179;-75
2023/09/10 13:58:32;;;;;;;8.00;7.20;;;;;;;;;;4951618;28;20172;-75
2023/09/10 14:00:58;;;;;;;6.88;6.20;;;;;;;;;;4954311;28;20201;-75
2023/09/10 14:03:26;;;;;;;8.43;6.55;;;;;;;;;;4955646;28;20252;-75
2023/09/10 14:05:51;;;;;;;6.93;6.32;;;;;;;;;;4970525;28;20177;-75
2023/09/10 14:08:16;;;;;;;7.00;6.38;;;;;;;;;;4968036;28;20264;-76
2023/09/10 14:10:42;;;;;;;7.47;6.83;;;;;;;;;;4952104;28;20192;-75
2023/09/10 14:13:07;;;;;;;8.27;6.47;;;;;;;;;;4971521;28;20505;-75
2023/09/10 14:15:32;;;;;;;6.70;6.07;;;;;;;;;;4967594;28;20231;-75
2023/09/10 14:17:57;;;;;;;6.97;6.28;;;;;;;;;;4954046;28;20231;-75
2023/09/10 14:20:22;;;;;;;7.07;6.20;;;;;;;;;;4951162;28;20363;-75
2023/09/10 14:22:49;;;;;;;6.57;5.90;;;;;;;;;;4972465;28;20174;-75
2023/09/10 14:25:15;;;;;;;7.53;6.82;;;;;;;;;;4970716;28;20215;-75
2023/09/10 14:27:41;;;;;;;9.20;6.43;;;;;;;;;;4969278;28;20165;-75
2023/09/10 14:30:06;;;;;;;7.55;6.82;;;;;;;;;;4970795;28;20177;-75
2023/09/10 14:32:31;;;;;;;7.68;6.38;;;;;;;;;;4973163;28;20181;-75
2023/09/10 14:34:57;;;;;;;7.82;6.88;;;;;;;;;;4970326;28;20232;-75